sensor_id;sensor_type;location;lat;lon;timestamp;pressure;altitude;pressure_sealevel;temperature;humidity
25232;BME280;13176;51.140;6.290;2023-03-15T00:00:53;100527.78;;;7.14;78.95
25232;BME280;13176;51.140;6.290;2023-03-15T00:03:21;100334.53;;;5.99;79.52
25232;BME280;13176;51.140;6.290;2023-03-15T00:05:49;100412.09;;;6.59;78.41
25232;BME280;13176;51.140;6.290;2023-03-15T00:08:17;100396.63;;;6.35;80.23
25232;BME280;13176;51.140;6.290;2023-03-15T00:10:45;100398.34;;;6.33;79.45
25232;BME280;13176;51.140;6.290;2023-03-15T00:13:13;100451.84;;;6.64;79.97
25232;BME280;13176;51.140;6.290;2023-03-15T00:15:48;100370.78;;;5.84;81.23
25232;BME280;13176;51.140;6.290;2023-03-15T00:18:16;100543.41;;;6.87;81.11
25232;BME280;13176;51.140;6.290;2023-03-15T00:20:43;100477.78;;;6.43;80.73
25232;BME280;13176;51.140;6.290;2023-03-15T00:23:09;100533.03;;;6.69;81.56
25232;BME280;13176;51.140;6.290;2023-03-15T00:25:36;100431.19;;;5.86;81.97
25232;BME280;13176;51.140;6.290;2023-03-15T00:28:03;100527.00;;;6.66;81.05
25232;BME280;13176;51.140;6.290;2023-03-15T00:30:29;100508.03;;;6.37;81.30
25232;BME280;13176;51.140;6.290;2023-03-15T00:32:56;100476.06;;;6.33;81.52
25232;BME280;13176;51.140;6.290;2023-03-15T00:35:22;100439.81;;;5.85;82.43
25232;BME280;13176;51.140;6.290;2023-03-15T00:37:53;100526.16;;;6.35;83.74
25232;BME280;13176;51.140;6.290;2023-03-15T00:40:19;100463.13;;;5.90;83.28
25232;BME280;13176;51.140;6.290;2023-03-15T00:42:46;100403.53;;;5.58;84.61
25232;BME280;13176;51.140;6.290;2023-03-15T00:45:17;100482.13;;;6.16;84.26
25232;BME280;13176;51.140;6.290;2023-03-15T00:47:44;100415.63;;;5.71;84.80
25232;BME280;13176;51.140;6.290;2023-03-15T00:50:10;100577.94;;;6.78;84.44
25232;BME280;13176;51.140;6.290;2023-03-15T00:52:37;100564.16;;;6.45;85.69
25232;BME280;13176;51.140;6.290;2023-03-15T00:55:04;100490.66;;;5.73;87.30
25232;BME280;13176;51.140;6.290;2023-03-15T00:57:34;100491.59;;;6.03;86.01
25232;BME280;13176;51.140;6.290;2023-03-15T01:00:00;100557.22;;;6.35;85.51
25232;BME280;13176;51.140;6.290;2023-03-15T01:02:33;100537.38;;;6.43;85.97
25232;BME280;13176;51.140;6.290;2023-03-15T01:05:07;100572.78;;;6.32;87.02
25232;BME280;13176;51.140;6.290;2023-03-15T01:07:36;100587.47;;;6.45;87.01
25232;BME280;13176;51.140;6.290;2023-03-15T01:10:04;100558.09;;;6.31;87.28
25232;BME280;13176;51.140;6.290;2023-03-15T01:12:32;100588.34;;;6.41;88.22
25232;BME280;13176;51.140;6.290;2023-03-15T01:15:02;100601.22;;;6.20;87.20
25232;BME280;13176;51.140;6.290;2023-03-15T01:17:29;100331.00;;;4.93;87.03
25232;BME280;13176;51.140;6.290;2023-03-15T01:19:57;100576.16;;;5.92;88.81
25232;BME280;13176;51.140;6.290;2023-03-15T01:22:24;100466.28;;;4.99;90.75
25232;BME280;13176;51.140;6.290;2023-03-15T01:24:51;100477.66;;;5.51;89.92
25232;BME280;13176;51.140;6.290;2023-03-15T01:27:18;100503.47;;;5.30;90.21
25232;BME280;13176;51.140;6.290;2023-03-15T01:29:44;100526.69;;;5.16;90.90
25232;BME280;13176;51.140;6.290;2023-03-15T01:32:11;100457.56;;;4.76;90.05
25232;BME280;13176;51.140;6.290;2023-03-15T01:34:40;100503.19;;;4.73;92.31
25232;BME280;13176;51.140;6.290;2023-03-15T01:37:09;100501.50;;;4.84;92.00
25232;BME280;13176;51.140;6.290;2023-03-15T01:39:35;100595.84;;;5.65;91.98
25232;BME280;13176;51.140;6.290;2023-03-15T01:42:02;100567.28;;;5.37;91.41
25232;BME280;13176;51.140;6.290;2023-03-15T01:47:16;100596.72;;;5.59;90.63
25232;BME280;13176;51.140;6.290;2023-03-15T01:49:43;100573.41;;;5.52;90.93
25232;BME280;13176;51.140;6.290;2023-03-15T01:52:17;100556.97;;;5.43;90.08
25232;BME280;13176;51.140;6.290;2023-03-15T01:54:53;100427.38;;;4.68;89.65
25232;BME280;13176;51.140;6.290;2023-03-15T01:57:27;100460.09;;;4.69;90.85
25232;BME280;13176;51.140;6.290;2023-03-15T02:00:03;100550.88;;;5.33;89.61
25232;BME280;13176;51.140;6.290;2023-03-15T02:02:40;100451.50;;;4.76;90.08
25232;BME280;13176;51.140;6.290;2023-03-15T02:05:20;100395.31;;;4.35;90.63
25232;BME280;13176;51.140;6.290;2023-03-15T02:07:49;100557.00;;;5.52;89.87
25232;BME280;13176;51.140;6.290;2023-03-15T02:10:20;100513.88;;;5.54;88.92
25232;BME280;13176;51.140;6.290;2023-03-15T02:12:54;100481.06;;;5.35;89.13
25232;BME280;13176;51.140;6.290;2023-03-15T02:15:21;100424.91;;;4.95;88.66
25232;BME280;13176;51.140;6.290;2023-03-15T02:17:49;100481.97;;;5.44;89.11
25232;BME280;13176;51.140;6.290;2023-03-15T02:22:59;100588.97;;;5.64;91.43
25232;BME280;13176;51.140;6.290;2023-03-15T02:25:56;100612.38;;;5.80;91.98
25232;BME280;13176;51.140;6.290;2023-03-15T02:28:27;100480.94;;;4.99;91.16
25232;BME280;13176;51.140;6.290;2023-03-15T02:30:55;100413.66;;;4.84;90.72
25232;BME280;13176;51.140;6.290;2023-03-15T02:33:31;100342.84;;;4.34;90.48
25232;BME280;13176;51.140;6.290;2023-03-15T02:36:16;100610.66;;;5.91;90.14
25232;BME280;13176;51.140;6.290;2023-03-15T02:38:43;100615.94;;;6.15;89.69
25232;BME280;13176;51.140;6.290;2023-03-15T02:41:11;100396.41;;;4.80;90.42
25232;BME280;13176;51.140;6.290;2023-03-15T02:43:40;100608.75;;;5.55;91.52
25232;BME280;13176;51.140;6.290;2023-03-15T02:46:07;100411.88;;;4.68;91.51
25232;BME280;13176;51.140;6.290;2023-03-15T02:48:38;100460.28;;;5.05;90.72
25232;BME280;13176;51.140;6.290;2023-03-15T02:51:06;100466.28;;;5.02;89.99
25232;BME280;13176;51.140;6.290;2023-03-15T02:53:32;100474.06;;;5.01;89.38
25232;BME280;13176;51.140;6.290;2023-03-15T02:55:59;100492.19;;;5.16;90.13
25232;BME280;13176;51.140;6.290;2023-03-15T02:58:25;100568.22;;;5.54;90.42
25232;BME280;13176;51.140;6.290;2023-03-15T03:00:52;100550.09;;;5.51;90.12
25232;BME280;13176;51.140;6.290;2023-03-15T03:03:19;100635.78;;;6.18;89.52
25232;BME280;13176;51.140;6.290;2023-03-15T03:05:52;100471.41;;;4.89;90.32
25232;BME280;13176;51.140;6.290;2023-03-15T03:08:18;100492.09;;;4.96;89.38
25232;BME280;13176;51.140;6.290;2023-03-15T03:10:45;100608.72;;;5.46;91.08
25232;BME280;13176;51.140;6.290;2023-03-15T03:13:11;100505.88;;;4.95;91.11
25232;BME280;13176;51.140;6.290;2023-03-15T03:15:38;100471.41;;;4.90;90.00
25232;BME280;13176;51.140;6.290;2023-03-15T03:18:05;100569.84;;;5.32;90.49
25232;BME280;13176;51.140;6.290;2023-03-15T03:20:34;100581.13;;;5.45;90.12
25232;BME280;13176;51.140;6.290;2023-03-15T03:23:01;100589.75;;;5.44;90.80
25232;BME280;13176;51.140;6.290;2023-03-15T03:25:32;100564.63;;;5.25;91.31
25232;BME280;13176;51.140;6.290;2023-03-15T03:28:01;100517.16;;;5.05;90.40
25232;BME280;13176;51.140;6.290;2023-03-15T03:30:29;100551.72;;;5.28;90.25
25232;BME280;13176;51.140;6.290;2023-03-15T03:32:56;100658.09;;;5.83;90.37
25232;BME280;13176;51.140;6.290;2023-03-15T03:35:23;100647.59;;;5.59;89.78
25232;BME280;13176;51.140;6.290;2023-03-15T03:37:51;100547.00;;;4.62;90.70
25232;BME280;13176;51.140;6.290;2023-03-15T03:40:19;100551.38;;;4.69;91.27
25232;BME280;13176;51.140;6.290;2023-03-15T03:42:45;100615.34;;;4.99;90.48
25232;BME280;13176;51.140;6.290;2023-03-15T03:45:12;100664.66;;;5.29;90.29
25232;BME280;13176;51.140;6.290;2023-03-15T03:47:38;100650.72;;;5.06;89.79
25232;BME280;13176;51.140;6.290;2023-03-15T03:50:05;100624.56;;;4.68;89.74
25232;BME280;13176;51.140;6.290;2023-03-15T03:52:32;100665.06;;;4.71;92.06
25232;BME280;13176;51.140;6.290;2023-03-15T03:54:59;100592.31;;;4.23;91.51
25232;BME280;13176;51.140;6.290;2023-03-15T03:57:25;100653.03;;;4.76;91.36
25232;BME280;13176;51.140;6.290;2023-03-15T03:59:52;100710.03;;;4.91;91.89
25232;BME280;13176;51.140;6.290;2023-03-15T04:02:18;100713.53;;;4.96;92.58
25232;BME280;13176;51.140;6.290;2023-03-15T04:04:45;100620.88;;;4.44;91.32
25232;BME280;13176;51.140;6.290;2023-03-15T04:07:18;100683.28;;;4.86;90.58
25232;BME280;13176;51.140;6.290;2023-03-15T04:09:44;100712.81;;;5.13;90.90
25232;BME280;13176;51.140;6.290;2023-03-15T04:12:10;100661.63;;;4.72;91.55
25232;BME280;13176;51.140;6.290;2023-03-15T04:14:37;100659.91;;;4.74;91.48
25232;BME280;13176;51.140;6.290;2023-03-15T04:17:03;100623.53;;;4.48;91.61
25232;BME280;13176;51.140;6.290;2023-03-15T04:19:30;100685.88;;;4.89;91.90
25232;BME280;13176;51.140;6.290;2023-03-15T04:21:56;100704.75;;;4.79;92.99
25232;BME280;13176;51.140;6.290;2023-03-15T04:24:23;100706.66;;;4.98;91.97
25232;BME280;13176;51.140;6.290;2023-03-15T04:26:49;100644.38;;;4.68;91.17
25232;BME280;13176;51.140;6.290;2023-03-15T04:29:16;100735.19;;;5.07;91.58
25232;BME280;13176;51.140;6.290;2023-03-15T04:31:42;100606.13;;;4.28;91.76
25232;BME280;13176;51.140;6.290;2023-03-15T04:34:09;100621.66;;;4.31;92.25
25232;BME280;13176;51.140;6.290;2023-03-15T04:36:35;100754.16;;;5.12;91.54
25232;BME280;13176;51.140;6.290;2023-03-15T04:39:04;100698.00;;;4.93;91.52
25232;BME280;13176;51.140;6.290;2023-03-15T04:41:33;100732.75;;;5.28;90.75
25232;BME280;13176;51.140;6.290;2023-03-15T04:44:01;100685.03;;;4.88;91.44
25232;BME280;13176;51.140;6.290;2023-03-15T04:46:30;100651.22;;;4.63;91.65
25232;BME280;13176;51.140;6.290;2023-03-15T04:48:57;100596.66;;;4.27;91.97
25232;BME280;13176;51.140;6.290;2023-03-15T04:51:24;100607.84;;;4.29;91.83
25232;BME280;13176;51.140;6.290;2023-03-15T04:53:50;100632.00;;;4.34;91.81
25232;BME280;13176;51.140;6.290;2023-03-15T04:56:17;100644.31;;;4.62;91.16
25232;BME280;13176;51.140;6.290;2023-03-15T04:58:46;100656.34;;;4.60;90.38
25232;BME280;13176;51.140;6.290;2023-03-15T05:01:15;100657.19;;;4.56;90.60
25232;BME280;13176;51.140;6.290;2023-03-15T05:03:42;100694.44;;;4.82;90.87
25232;BME280;13176;51.140;6.290;2023-03-15T05:06:08;100738.59;;;5.03;90.72
25232;BME280;13176;51.140;6.290;2023-03-15T05:08:35;100723.88;;;4.96;91.15
25232;BME280;13176;51.140;6.290;2023-03-15T05:11:05;100785.50;;;5.45;90.56
25232;BME280;13176;51.140;6.290;2023-03-15T05:13:44;100647.72;;;4.58;89.67
25232;BME280;13176;51.140;6.290;2023-03-15T05:16:10;100753.34;;;5.19;90.29
25232;BME280;13176;51.140;6.290;2023-03-15T05:18:37;100678.91;;;4.79;90.46
25232;BME280;13176;51.140;6.290;2023-03-15T05:21:04;100760.28;;;5.23;90.19
25232;BME280;13176;51.140;6.290;2023-03-15T05:23:31;100657.28;;;4.69;90.13
25232;BME280;13176;51.140;6.290;2023-03-15T05:26:01;100653.88;;;4.75;89.71
25232;BME280;13176;51.140;6.290;2023-03-15T05:28:29;100810.69;;;5.69;89.69
25232;BME280;13176;51.140;6.290;2023-03-15T05:30:58;100675.41;;;4.71;90.57
25232;BME280;13176;51.140;6.290;2023-03-15T05:33:26;100724.78;;;5.01;90.09
25232;BME280;13176;51.140;6.290;2023-03-15T05:35:55;100716.16;;;5.03;90.20
25232;BME280;13176;51.140;6.290;2023-03-15T05:38:22;100649.41;;;4.53;90.19
25232;BME280;13176;51.140;6.290;2023-03-15T05:41:01;100763.75;;;5.25;90.95
25232;BME280;13176;51.140;6.290;2023-03-15T05:43:27;100680.63;;;4.78;90.67
25232;BME280;13176;51.140;6.290;2023-03-15T05:46:02;100723.91;;;5.02;90.93
25232;BME280;13176;51.140;6.290;2023-03-15T05:52:00;100725.56;;;4.94;90.43
25232;BME280;13176;51.140;6.290;2023-03-15T05:54:27;100729.06;;;4.99;90.41
25232;BME280;13176;51.140;6.290;2023-03-15T05:56:55;100851.22;;;5.72;90.41
25232;BME280;13176;51.140;6.290;2023-03-15T05:59:33;100704.72;;;4.76;91.46
25232;BME280;13176;51.140;6.290;2023-03-15T06:02:05;100737.69;;;5.01;90.29
25232;BME280;13176;51.140;6.290;2023-03-15T06:04:34;100734.28;;;5.05;89.61
25232;BME280;13176;51.140;6.290;2023-03-15T06:07:16;100706.75;;;5.07;89.06
25232;BME280;13176;51.140;6.290;2023-03-15T06:09:46;100754.28;;;5.27;89.56
25232;BME280;13176;51.140;6.290;2023-03-15T06:12:12;100686.81;;;4.98;88.69
25232;BME280;13176;51.140;6.290;2023-03-15T06:14:40;100729.25;;;5.23;89.15
25232;BME280;13176;51.140;6.290;2023-03-15T06:17:16;100755.16;;;5.29;89.25
25232;BME280;13176;51.140;6.290;2023-03-15T06:19:49;100775.16;;;5.51;88.84
25232;BME280;13176;51.140;6.290;2023-03-15T06:22:15;100760.41;;;5.38;88.85
25232;BME280;13176;51.140;6.290;2023-03-15T06:24:48;100765.56;;;5.35;89.23
25232;BME280;13176;51.140;6.290;2023-03-15T06:27:17;100730.00;;;5.07;89.55
25232;BME280;13176;51.140;6.290;2023-03-15T06:29:48;100751.69;;;5.27;88.81
25232;BME280;13176;51.140;6.290;2023-03-15T06:32:21;100832.41;;;5.85;89.43
25232;BME280;13176;51.140;6.290;2023-03-15T06:34:48;100795.00;;;5.52;89.31
25232;BME280;13176;51.140;6.290;2023-03-15T06:37:17;100876.50;;;5.98;89.92
25232;BME280;13176;51.140;6.290;2023-03-15T06:39:59;100857.28;;;5.69;90.07
25232;BME280;13176;51.140;6.290;2023-03-15T06:42:28;100767.19;;;5.24;90.08
25232;BME280;13176;51.140;6.290;2023-03-15T06:44:55;100905.94;;;6.09;89.77
25232;BME280;13176;51.140;6.290;2023-03-15T06:47:21;100815.88;;;5.69;88.99
25232;BME280;13176;51.140;6.290;2023-03-15T06:49:48;100843.47;;;5.70;89.59
25232;BME280;13176;51.140;6.290;2023-03-15T06:52:17;100827.97;;;5.73;88.88
25232;BME280;13176;51.140;6.290;2023-03-15T06:54:44;100844.50;;;5.90;88.87
25232;BME280;13176;51.140;6.290;2023-03-15T06:57:10;100836.50;;;5.63;88.77
25232;BME280;13176;51.140;6.290;2023-03-15T06:59:45;100875.72;;;6.08;88.89
25232;BME280;13176;51.140;6.290;2023-03-15T07:02:24;100918.22;;;6.36;88.42
25232;BME280;13176;51.140;6.290;2023-03-15T07:04:52;100944.97;;;6.32;89.08
25232;BME280;13176;51.140;6.290;2023-03-15T07:07:18;100916.38;;;6.18;88.29
25232;BME280;13176;51.140;6.290;2023-03-15T07:09:45;100864.38;;;5.94;88.13
25232;BME280;13176;51.140;6.290;2023-03-15T07:12:12;100975.31;;;6.49;88.00
25232;BME280;13176;51.140;6.290;2023-03-15T07:14:38;100929.38;;;6.27;88.72
25232;BME280;13176;51.140;6.290;2023-03-15T07:17:05;100875.50;;;5.78;89.56
25232;BME280;13176;51.140;6.290;2023-03-15T07:19:31;100958.81;;;6.34;89.11
25232;BME280;13176;51.140;6.290;2023-03-15T07:21:57;100941.41;;;6.21;89.03
25232;BME280;13176;51.140;6.290;2023-03-15T07:24:28;100830.38;;;5.53;88.82
25232;BME280;13176;51.140;6.290;2023-03-15T07:26:55;100989.09;;;6.47;89.58
25232;BME280;13176;51.140;6.290;2023-03-15T07:29:23;100824.44;;;5.62;89.29
25232;BME280;13176;51.140;6.290;2023-03-15T07:31:50;100943.97;;;6.19;89.20
25232;BME280;13176;51.140;6.290;2023-03-15T07:34:17;100994.34;;;6.57;89.57
25232;BME280;13176;51.140;6.290;2023-03-15T07:36:44;100972.75;;;6.54;88.35
25232;BME280;13176;51.140;6.290;2023-03-15T07:39:10;100844.34;;;5.74;88.78
25232;BME280;13176;51.140;6.290;2023-03-15T07:41:37;100846.22;;;5.87;88.46
25232;BME280;13176;51.140;6.290;2023-03-15T07:44:04;101029.13;;;6.86;88.07
25232;BME280;13176;51.140;6.290;2023-03-15T07:46:31;100908.56;;;6.12;88.37
25232;BME280;13176;51.140;6.290;2023-03-15T07:49:05;100940.69;;;6.38;87.75
25232;BME280;13176;51.140;6.290;2023-03-15T07:51:31;100978.06;;;6.72;87.95
25232;BME280;13176;51.140;6.290;2023-03-15T07:53:58;100888.72;;;6.20;87.59
25232;BME280;13176;51.140;6.290;2023-03-15T07:56:25;100862.81;;;6.20;86.85
25232;BME280;13176;51.140;6.290;2023-03-15T07:58:51;101037.66;;;6.70;87.91
25232;BME280;13176;51.140;6.290;2023-03-15T08:01:17;100925.91;;;6.25;87.67
25232;BME280;13176;51.140;6.290;2023-03-15T08:03:44;100973.59;;;6.53;87.40
25232;BME280;13176;51.140;6.290;2023-03-15T08:06:10;100925.19;;;6.47;86.57
25232;BME280;13176;51.140;6.290;2023-03-15T08:08:37;101033.66;;;7.21;87.08
25232;BME280;13176;51.140;6.290;2023-03-15T08:11:04;100998.09;;;7.01;86.36
25232;BME280;13176;51.140;6.290;2023-03-15T08:13:31;100937.53;;;6.90;86.21
25232;BME280;13176;51.140;6.290;2023-03-15T08:15:57;101046.75;;;7.47;85.93
25232;BME280;13176;51.140;6.290;2023-03-15T08:18:27;100901.91;;;6.53;85.90
25232;BME280;13176;51.140;6.290;2023-03-15T08:20:56;101010.31;;;7.20;86.92
25232;BME280;13176;51.140;6.290;2023-03-15T08:23:24;100913.97;;;6.48;86.64
25232;BME280;13176;51.140;6.290;2023-03-15T08:25:50;101059.75;;;7.53;85.92
25232;BME280;13176;51.140;6.290;2023-03-15T08:28:17;101068.47;;;7.68;85.14
25232;BME280;13176;51.140;6.290;2023-03-15T08:30:43;101001.66;;;7.18;85.24
25232;BME280;13176;51.140;6.290;2023-03-15T08:33:10;101096.25;;;7.96;85.94
25232;BME280;13176;51.140;6.290;2023-03-15T08:35:37;101090.22;;;7.95;84.64
25232;BME280;13176;51.140;6.290;2023-03-15T08:38:04;100987.91;;;7.46;84.59
25232;BME280;13176;51.140;6.290;2023-03-15T08:40:30;101095.41;;;7.92;83.35
25232;BME280;13176;51.140;6.290;2023-03-15T08:42:59;101041.69;;;7.83;84.29
25232;BME280;13176;51.140;6.290;2023-03-15T08:45:26;101066.88;;;8.12;83.93
25232;BME280;13176;51.140;6.290;2023-03-15T08:47:56;100972.41;;;7.64;82.22
25232;BME280;13176;51.140;6.290;2023-03-15T08:50:23;101045.19;;;8.14;82.35
25232;BME280;13176;51.140;6.290;2023-03-15T08:52:51;101014.00;;;8.05;82.01
25232;BME280;13176;51.140;6.290;2023-03-15T08:55:17;100995.81;;;7.88;82.18
25232;BME280;13176;51.140;6.290;2023-03-15T08:57:45;101062.59;;;8.27;81.83
25232;BME280;13176;51.140;6.290;2023-03-15T09:00:12;101019.22;;;7.96;80.77
25232;BME280;13176;51.140;6.290;2023-03-15T09:02:49;101085.13;;;8.52;81.43
25232;BME280;13176;51.140;6.290;2023-03-15T09:05:17;101026.13;;;7.91;79.00
25232;BME280;13176;51.140;6.290;2023-03-15T09:07:46;100986.31;;;7.98;80.12
25232;BME280;13176;51.140;6.290;2023-03-15T09:10:15;101131.13;;;8.88;80.53
25232;BME280;13176;51.140;6.290;2023-03-15T09:12:44;101055.66;;;8.44;79.44
25232;BME280;13176;51.140;6.290;2023-03-15T09:15:11;101129.34;;;9.07;79.71
25232;BME280;13176;51.140;6.290;2023-03-15T09:17:39;101071.25;;;8.50;77.91
25232;BME280;13176;51.140;6.290;2023-03-15T09:20:10;101061.72;;;8.42;77.53
25232;BME280;13176;51.140;6.290;2023-03-15T09:22:40;101151.03;;;9.14;76.23
25232;BME280;13176;51.140;6.290;2023-03-15T09:25:06;101041.78;;;8.45;75.59
25232;BME280;13176;51.140;6.290;2023-03-15T09:27:35;100967.25;;;8.08;75.60
25232;BME280;13176;51.140;6.290;2023-03-15T09:30:02;101078.19;;;8.75;76.13
25232;BME280;13176;51.140;6.290;2023-03-15T09:32:29;101123.28;;;9.04;75.24
25232;BME280;13176;51.140;6.290;2023-03-15T09:35:06;101007.13;;;8.52;75.64
25232;BME280;13176;51.140;6.290;2023-03-15T09:37:36;101062.53;;;9.09;76.35
25232;BME280;13176;51.140;6.290;2023-03-15T09:40:03;101156.06;;;9.86;76.49
25232;BME280;13176;51.140;6.290;2023-03-15T09:42:54;101062.47;;;9.44;77.62
25232;BME280;13176;51.140;6.290;2023-03-15T09:48:22;101146.50;;;9.95;74.43
25232;BME280;13176;51.140;6.290;2023-03-15T09:51:03;101138.75;;;9.76;72.84
25232;BME280;13176;51.140;6.290;2023-03-15T09:54:05;101171.75;;;9.66;71.63
25232;BME280;13176;51.140;6.290;2023-03-15T09:56:57;101165.78;;;9.28;71.38
25232;BME280;13176;51.140;6.290;2023-03-15T09:59:31;100962.03;;;8.02;72.27
25232;BME280;13176;51.140;6.290;2023-03-15T10:02:23;101036.59;;;8.51;72.13
25232;BME280;13176;51.140;6.290;2023-03-15T10:04:55;101041.78;;;8.39;71.07
25232;BME280;13176;51.140;6.290;2023-03-15T10:07:24;101123.31;;;8.71;70.34
25232;BME280;13176;51.140;6.290;2023-03-15T10:09:52;100995.81;;;8.01;70.03
25232;BME280;13176;51.140;6.290;2023-03-15T10:12:35;101140.63;;;9.14;71.16
25232;BME280;13176;51.140;6.290;2023-03-15T10:20:24;101095.06;;;10.28;68.28
25232;BME280;13176;51.140;6.290;2023-03-15T10:23:00;101134.91;;;10.54;64.95
25232;BME280;13176;51.140;6.290;2023-03-15T10:25:29;101053.56;;;9.84;61.14
25232;BME280;13176;51.140;6.290;2023-03-15T10:28:03;101166.31;;;10.33;61.12
25232;BME280;13176;51.140;6.290;2023-03-15T10:30:36;101119.41;;;10.24;63.56
25232;BME280;13176;51.140;6.290;2023-03-15T10:33:19;101058.06;;;9.62;64.12
25232;BME280;13176;51.140;6.290;2023-03-15T10:35:48;101161.22;;;10.16;63.49
25232;BME280;13176;51.140;6.290;2023-03-15T10:38:22;101017.16;;;9.70;65.67
25232;BME280;13176;51.140;6.290;2023-03-15T10:40:55;101155.53;;;10.87;63.36
25232;BME280;13176;51.140;6.290;2023-03-15T10:46:08;101169.44;;;10.89;57.95
25232;BME280;13176;51.140;6.290;2023-03-15T10:48:39;101085.97;;;10.80;63.67
25232;BME280;13176;51.140;6.290;2023-03-15T10:51:23;101156.94;;;13.71;52.76
25232;BME280;13176;51.140;6.290;2023-03-15T10:54:11;101066.31;;;16.28;45.23
25232;BME280;13176;51.140;6.290;2023-03-15T10:56:47;101039.81;;;16.86;39.45
25232;BME280;13176;51.140;6.290;2023-03-15T10:59:18;101141.19;;;18.25;39.46
25232;BME280;13176;51.140;6.290;2023-03-15T11:01:47;101115.38;;;19.19;38.87
25232;BME280;13176;51.140;6.290;2023-03-15T11:04:24;101121.50;;;18.98;38.77
25232;BME280;13176;51.140;6.290;2023-03-15T11:07:03;101120.38;;;17.93;39.46
25232;BME280;13176;51.140;6.290;2023-03-15T11:09:43;101167.19;;;17.65;37.84
25232;BME280;13176;51.140;6.290;2023-03-15T11:12:22;101168.00;;;15.04;41.29
25232;BME280;13176;51.140;6.290;2023-03-15T11:15:04;101159.06;;;13.95;43.70
25232;BME280;13176;51.140;6.290;2023-03-15T11:17:42;101091.72;;;13.09;44.45
25232;BME280;13176;51.140;6.290;2023-03-15T11:22:52;101012.81;;;14.76;42.59
25232;BME280;13176;51.140;6.290;2023-03-15T11:25:20;101067.03;;;14.80;42.26
25232;BME280;13176;51.140;6.290;2023-03-15T11:27:50;101169.34;;;14.48;43.69
25232;BME280;13176;51.140;6.290;2023-03-15T11:30:26;101158.47;;;14.25;45.39
25232;BME280;13176;51.140;6.290;2023-03-15T11:32:54;101087.25;;;15.09;39.64
25232;BME280;13176;51.140;6.290;2023-03-15T11:35:34;101156.03;;;15.61;41.02
25232;BME280;13176;51.140;6.290;2023-03-15T11:38:17;101188.50;;;15.25;38.90
25232;BME280;13176;51.140;6.290;2023-03-15T11:40:55;101194.97;;;15.81;39.38
25232;BME280;13176;51.140;6.290;2023-03-15T11:43:28;101172.28;;;16.37;37.49
25232;BME280;13176;51.140;6.290;2023-03-15T11:46:03;101021.38;;;16.60;38.19
25232;BME280;13176;51.140;6.290;2023-03-15T11:48:43;101105.81;;;17.83;36.03
25232;BME280;13176;51.140;6.290;2023-03-15T11:51:12;101092.66;;;17.34;36.42
25232;BME280;13176;51.140;6.290;2023-03-15T11:53:47;101209.09;;;16.95;35.10
25232;BME280;13176;51.140;6.290;2023-03-15T11:56:54;101205.28;;;15.55;39.66
25232;BME280;13176;51.140;6.290;2023-03-15T11:59:29;101185.75;;;14.95;38.59
25232;BME280;13176;51.140;6.290;2023-03-15T12:04:44;101191.03;;;13.69;42.66
25232;BME280;13176;51.140;6.290;2023-03-15T12:12:45;101208.81;;;16.49;37.53
25232;BME280;13176;51.140;6.290;2023-03-15T12:17:54;101186.50;;;13.79;41.15
25232;BME280;13176;51.140;6.290;2023-03-15T12:20:41;101206.66;;;13.27;42.68
25232;BME280;13176;51.140;6.290;2023-03-15T12:23:21;101180.06;;;13.48;42.52
25232;BME280;13176;51.140;6.290;2023-03-15T12:26:04;101184.22;;;15.21;40.15
25232;BME280;13176;51.140;6.290;2023-03-15T12:28:40;101199.56;;;16.03;38.48
25232;BME280;13176;51.140;6.290;2023-03-15T12:31:09;101199.09;;;15.22;36.96
25232;BME280;13176;51.140;6.290;2023-03-15T12:33:51;101195.53;;;15.26;37.65
25232;BME280;13176;51.140;6.290;2023-03-15T12:36:29;101199.72;;;14.20;39.59
25232;BME280;13176;51.140;6.290;2023-03-15T12:39:01;101179.56;;;14.20;40.23
25232;BME280;13176;51.140;6.290;2023-03-15T12:41:35;101183.34;;;15.22;36.95
25232;BME280;13176;51.140;6.290;2023-03-15T12:47:02;100962.78;;;15.71;35.37
25232;BME280;13176;51.140;6.290;2023-03-15T12:49:37;101028.25;;;16.09;35.19
25232;BME280;13176;51.140;6.290;2023-03-15T12:54:53;101143.75;;;16.51;34.22
25232;BME280;13176;51.140;6.290;2023-03-15T12:57:23;101165.09;;;16.97;32.75
25232;BME280;13176;51.140;6.290;2023-03-15T12:59:54;101169.56;;;16.40;33.62
25232;BME280;13176;51.140;6.290;2023-03-15T13:02:32;101176.44;;;18.01;35.24
25232;BME280;13176;51.140;6.290;2023-03-15T13:08:08;101141.59;;;18.15;33.15
25232;BME280;13176;51.140;6.290;2023-03-15T13:14:04;101147.06;;;18.33;30.57
25232;BME280;13176;51.140;6.290;2023-03-15T13:19:25;101183.34;;;18.05;30.22
25232;BME280;13176;51.140;6.290;2023-03-15T13:22:02;101174.78;;;18.22;31.23
25232;BME280;13176;51.140;6.290;2023-03-15T13:27:55;101162.16;;;17.33;32.66
25232;BME280;13176;51.140;6.290;2023-03-15T13:30:54;101062.31;;;16.96;33.12
25232;BME280;13176;51.140;6.290;2023-03-15T13:33:09;101176.44;;;18.26;31.98
25232;BME280;13176;51.140;6.290;2023-03-15T13:35:47;101128.28;;;17.70;30.57
25232;BME280;13176;51.140;6.290;2023-03-15T13:38:24;101177.84;;;18.11;32.13
25232;BME280;13176;51.140;6.290;2023-03-15T13:40:52;101187.88;;;17.53;30.30
25232;BME280;13176;51.140;6.290;2023-03-15T13:43:19;101181.34;;;17.38;34.60
25232;BME280;13176;51.140;6.290;2023-03-15T13:45:50;101130.50;;;17.33;31.72
25232;BME280;13176;51.140;6.290;2023-03-15T13:48:18;101132.25;;;17.82;32.48
25232;BME280;13176;51.140;6.290;2023-03-15T13:50:49;101110.72;;;17.69;33.32
25232;BME280;13176;51.140;6.290;2023-03-15T13:53:24;101078.88;;;16.75;31.99
25232;BME280;13176;51.140;6.290;2023-03-15T13:56:16;101096.69;;;16.67;30.65
25232;BME280;13176;51.140;6.290;2023-03-15T13:58:43;101090.00;;;16.28;31.96
25232;BME280;13176;51.140;6.290;2023-03-15T14:01:11;101144.69;;;15.59;33.02
25232;BME280;13176;51.140;6.290;2023-03-15T14:03:40;101153.22;;;15.99;35.81
25232;BME280;13176;51.140;6.290;2023-03-15T14:06:12;101120.16;;;15.25;32.58